Allen, Kentucky
Current Conditions -  °F | °C
As of 6:35 AM on Friday 31 Oct 2014 (Local Time) from KPBX Reporting Station
Scattered Clouds Scattered Clouds  
Wind Chill: 37°   Ceiling: Unl
Heat Index: 37°   Visibility: 10mi
Dew Point: 36°   Wind: 0mph
Humidity: 93%   Direction: NA
Pressure: 29.97"   Gusts: NA
Location:  37.61°N, 82.73°W
Report Text: KPBX 311035Z AUTO 00000KT 10SM SCT120 03/02 A2997 RMK AO2 T00300020
Loading
Personal Weather Stations






























Interactive Weather Map
Tropical Storm Tracking
New forecast layout! Learn more

10-Day Weather Forecast

Advertisements
Track Severe Weather on mobile